Time;durP1;ratioP1;P1;durP2;ratioP2;P2;SDS_P1;SDS_P2;PMS_P1;PMS_P2;Temp;Humidity;BMP_temperature;BMP_pressure;BME280_temperature;BME280_humidity;BME280_pressure;Samples;Min_cycle;Max_cycle;Signal;HPM_P1;HPM_P2
2024/01/12 00:00:33;;;;;;;17.47;9.60;;;-1.30;99.90;-1.70;101906.00;;;;4909244;28;122352;-62
2024/01/12 00:02:59;;;;;;;23.00;11.10;;;-1.20;99.90;-1.60;101909.00;;;;4908671;28;92952;-62
2024/01/12 00:05:24;;;;;;;16.23;11.63;;;-1.20;99.90;-1.60;101910.00;;;;4913338;28;93055;-62
2024/01/12 00:07:50;;;;;;;18.67;8.57;;;-1.20;99.90;-1.60;101901.00;;;;4909574;28;121657;-62
2024/01/12 00:10:16;;;;;;;18.63;9.13;;;-1.30;99.90;-1.60;101906.00;;;;4907032;28;121886;-63
2024/01/12 00:12:42;;;;;;;17.17;8.43;;;-1.10;99.90;-1.60;101916.00;;;;4907213;28;92740;-62
2024/01/12 00:15:08;;;;;;;14.80;8.63;;;-1.10;99.90;-1.60;101913.00;;;;4907537;28;94054;-62
2024/01/12 00:17:34;;;;;;;12.77;7.47;;;-1.10;99.90;-1.50;101919.00;;;;4915554;28;92893;-63
2024/01/12 00:20:01;;;;;;;13.13;8.63;;;-1.00;99.90;-1.50;101916.00;;;;4906443;28;92991;-63
2024/01/12 00:22:26;;;;;;;16.30;8.37;;;-1.10;99.90;-1.50;101910.00;;;;4911850;28;94739;-62
2024/01/12 00:24:52;;;;;;;23.77;9.60;;;-1.60;99.90;-1.40;101912.00;;;;4906635;28;109237;-62
2024/01/12 00:27:18;;;;;;;12.40;8.23;;;-1.10;99.90;-1.40;101909.00;;;;4905191;28;94532;-62
2024/01/12 00:29:43;;;;;;;12.83;7.93;;;-0.30;99.90;-1.40;101913.00;;;;4904804;28;121163;-62
2024/01/12 00:32:09;;;;;;;15.73;8.30;;;-1.00;99.90;-1.40;101897.00;;;;4907960;28;102716;-62
2024/01/12 00:34:35;;;;;;;14.03;8.67;;;-0.90;99.90;-1.40;101909.00;;;;4910476;28;92974;-62
2024/01/12 00:37:00;;;;;;;14.20;7.20;;;-0.90;99.90;-1.40;101903.00;;;;4907697;28;123150;-62
2024/01/12 00:39:26;;;;;;;12.47;7.27;;;0.20;99.90;-1.30;101891.00;;;;4903961;28;123624;-63
2024/01/12 00:41:52;;;;;;;15.40;8.43;;;-1.20;99.90;-1.30;101904.00;;;;4903980;28;112801;-63
2024/01/12 00:44:18;;;;;;;17.40;9.03;;;-1.00;99.90;-1.30;101889.00;;;;4907113;28;92850;-63
2024/01/12 00:46:45;;;;;;;29.27;11.40;;;-0.90;99.90;-1.30;101888.00;;;;4905787;28;92791;-62
2024/01/12 00:49:11;;;;;;;12.63;8.03;;;-0.90;99.90;-1.30;101889.00;;;;4903178;28;94159;-63
2024/01/12 00:51:37;;;;;;;13.00;7.40;;;-0.80;99.90;-1.30;101886.00;;;;4910779;28;93179;-63
2024/01/12 00:54:04;;;;;;;10.93;8.07;;;-0.90;99.90;-1.30;101880.00;;;;4907878;28;106196;-63
2024/01/12 00:56:30;;;;;;;11.93;6.83;;;-0.80;99.90;-1.30;101871.00;;;;4905463;28;93009;-63
2024/01/12 00:58:55;;;;;;;16.17;7.90;;;-1.00;99.90;-1.40;101851.00;;;;4904686;28;120713;-64
2024/01/12 01:01:22;;;;;;;17.90;8.43;;;-1.00;99.90;-1.40;101862.00;;;;4906723;28;103287;-63
2024/01/12 01:03:48;;;;;;;15.73;8.07;;;-0.90;99.90;-1.40;101864.00;;;;4904924;28;93468;-65
2024/01/12 01:06:14;;;;;;;12.20;7.30;;;-1.00;99.90;-1.50;101878.00;;;;4907099;28;114429;-64
2024/01/12 01:08:40;;;;;;;12.83;8.33;;;0.30;99.90;-1.50;101870.00;;;;4905789;28;93753;-63
2024/01/12 01:11:06;;;;;;;15.37;8.17;;;-1.10;99.90;-1.50;101861.00;;;;4908529;28;109690;-63
2024/01/12 01:13:32;;;;;;;16.93;10.10;;;-1.10;99.90;-1.50;101879.00;;;;4909871;28;109732;-63
2024/01/12 01:15:58;;;;;;;12.80;7.87;;;0.60;99.90;-1.50;101878.00;;;;4902949;28;93375;-62
2024/01/12 01:18:23;;;;;;;10.23;7.27;;;-0.90;99.90;-1.50;101875.00;;;;4905560;28;122331;-63
2024/01/12 01:20:49;;;;;;;10.57;7.53;;;-1.10;99.90;-1.50;101877.00;;;;4908652;28;109900;-64
2024/01/12 01:23:15;;;;;;;11.70;7.17;;;-1.00;99.90;-1.50;101883.00;;;;4905904;28;108160;-63
2024/01/12 01:25:41;;;;;;;17.33;8.33;;;-1.00;99.90;-1.50;101891.00;;;;4907490;28;94633;-63
2024/01/12 01:28:06;;;;;;;16.30;7.83;;;-1.00;99.90;-1.40;101874.00;;;;4906277;28;120385;-64
2024/01/12 01:30:32;;;;;;;13.27;6.83;;;-1.00;99.90;-1.40;101888.00;;;;4907940;28;93078;-63
2024/01/12 01:32:58;;;;;;;17.90;7.63;;;-1.00;99.90;-1.40;101887.00;;;;4909362;28;92572;-64
2024/01/12 01:35:23;;;;;;;12.60;7.40;;;-1.00;99.90;-1.40;101885.00;;;;4906236;28;122246;-64
2024/01/12 01:37:50;;;;;;;13.17;6.77;;;-1.00;99.90;-1.30;101890.00;;;;4912216;28;124697;-65
2024/01/12 01:40:16;;;;;;;12.63;7.57;;;-1.00;99.90;-1.30;101876.00;;;;4910342;28;92725;-64
2024/01/12 01:42:42;;;;;;;16.70;8.07;;;0.20;99.90;-1.30;101885.00;;;;4905860;28;108631;-64
2024/01/12 01:45:08;;;;;;;17.53;8.93;;;-0.90;99.90;-1.30;101870.00;;;;4906279;28;93571;-63
2024/01/12 01:47:33;;;;;;;10.40;7.77;;;-0.80;99.90;-1.30;101879.00;;;;4907867;28;93109;-63
2024/01/12 01:49:59;;;;;;;10.30;7.23;;;-0.80;99.90;-1.30;101876.00;;;;4913186;28;92975;-63
2024/01/12 01:52:27;;;;;;;13.30;7.80;;;-0.90;99.90;-1.30;101888.00;;;;4905806;28;108766;-63
2024/01/12 01:54:56;;;;;;;11.77;6.90;;;-0.90;99.90;-1.30;101889.00;;;;4904300;28;94227;-64
2024/01/12 01:57:24;;;;;;;16.00;8.13;;;-2.10;99.90;-1.20;101876.00;;;;4905448;28;112047;-64
2024/01/12 01:59:50;;;;;;;13.20;7.57;;;-0.80;99.90;-1.20;101873.00;;;;4917630;28;98597;-63
2024/01/12 02:02:16;;;;;;;14.57;7.07;;;-0.80;99.90;-1.20;101871.00;;;;4906442;28;107022;-64
2024/01/12 02:04:42;;;;;;;9.37;6.63;;;-0.90;99.90;-1.20;101880.00;;;;4905267;28;121377;-63
2024/01/12 02:07:07;;;;;;;12.83;8.03;;;-0.80;99.90;-1.20;101877.00;;;;4905326;28;123668;-63
2024/01/12 02:09:34;;;;;;;9.30;6.83;;;-0.80;99.90;-1.20;101880.00;;;;4906029;28;92314;-63
2024/01/12 02:12:00;;;;;;;13.13;7.90;;;-0.60;99.90;-1.20;101895.00;;;;4908557;28;93612;-63
2024/01/12 02:14:25;;;;;;;10.60;7.07;;;-0.70;99.90;-1.10;101887.00;;;;4903678;28;93503;-64
2024/01/12 02:16:52;;;;;;;12.10;8.33;;;-0.60;99.90;-1.10;101888.00;;;;4907595;28;123576;-62
2024/01/12 02:19:18;;;;;;;17.57;7.13;;;-0.80;99.90;-1.10;101884.00;;;;4909553;28;109668;-65
2024/01/12 02:21:43;;;;;;;11.40;8.47;;;-0.80;99.90;-1.10;101870.00;;;;4904487;28;108981;-63
2024/01/12 02:24:09;;;;;;;9.93;6.80;;;0.40;99.90;-1.10;101862.00;;;;4906530;28;123740;-63
2024/01/12 02:26:35;;;;;;;12.83;7.57;;;-0.70;99.90;-1.10;101862.00;;;;4906647;28;121595;-63
2024/01/12 02:29:03;;;;;;;12.13;7.63;;;-0.70;99.90;-1.10;101864.00;;;;4904149;28;111169;-63
2024/01/12 02:31:30;;;;;;;19.37;8.40;;;-0.70;99.90;-1.10;101870.00;;;;4907448;28;93199;-62
2024/01/12 02:33:56;;;;;;;11.73;6.13;;;-0.60;99.90;-1.10;101870.00;;;;4905718;28;92272;-63
2024/01/12 02:36:28;;;;;;;13.83;6.57;;;-0.60;99.90;-1.10;101870.00;;;;4904994;28;120146;-62
2024/01/12 02:38:55;;;;;;;10.13;7.73;;;-0.70;99.90;-1.10;101859.00;;;;4908413;28;92547;-62
2024/01/12 02:41:24;;;;;;;12.20;7.73;;;-0.60;99.90;-1.10;101862.00;;;;4907862;28;93634;-62
2024/01/12 02:43:50;;;;;;;11.63;7.43;;;-0.70;99.90;-1.10;101861.00;;;;4902639;28;94060;-62
2024/01/12 02:46:15;;;;;;;11.87;7.37;;;-0.70;99.90;-1.10;101861.00;;;;4906040;28;93506;-62
2024/01/12 02:48:41;;;;;;;12.63;7.97;;;-0.50;99.90;-1.00;101850.00;;;;4904853;28;110561;-63
2024/01/12 02:51:06;;;;;;;12.00;6.83;;;-0.70;99.90;-1.10;101855.00;;;;4904365;28;109162;-64
2024/01/12 02:53:32;;;;;;;9.73;6.60;;;-0.30;99.90;-1.00;101843.00;;;;4906173;28;121009;-64
2024/01/12 02:55:59;;;;;;;11.93;6.40;;;-0.50;99.90;-1.00;101851.00;;;;4905270;28;121330;-63
2024/01/12 02:58:25;;;;;;;9.73;7.17;;;-0.60;99.90;-1.00;101848.00;;;;4903427;28;110110;-63
2024/01/12 03:00:52;;;;;;;16.80;7.67;;;-0.60;99.90;-1.00;101853.00;;;;4905315;28;108308;-64
2024/01/12 03:03:18;;;;;;;13.00;6.07;;;-0.50;99.90;-1.00;101848.00;;;;4909334;28;94308;-63
2024/01/12 03:05:44;;;;;;;10.60;6.77;;;-0.60;99.90;-1.00;101845.00;;;;4906154;28;114977;-64
2024/01/12 03:08:10;;;;;;;12.47;7.47;;;-0.50;99.90;-1.00;101843.00;;;;4916193;28;110862;-64
2024/01/12 03:10:37;;;;;;;10.53;7.53;;;-0.60;99.90;-1.00;101858.00;;;;4908803;28;92946;-62
2024/01/12 03:13:03;;;;;;;13.17;7.60;;;-0.50;99.90;-1.00;101851.00;;;;4908031;28;110981;-64
2024/01/12 03:15:29;;;;;;;13.67;7.77;;;-0.50;99.90;-1.00;101869.00;;;;4907669;28;103004;-63
2024/01/12 03:17:56;;;;;;;9.93;7.23;;;-0.60;99.90;-0.90;101854.00;;;;4907668;28;92861;-64
2024/01/12 03:20:22;;;;;;;13.23;7.60;;;-0.50;99.90;-0.90;101858.00;;;;4911804;28;92649;-64
2024/01/12 03:22:48;;;;;;;16.00;8.03;;;-0.50;99.90;-1.00;101853.00;;;;4905697;28;121415;-64
2024/01/12 03:25:13;;;;;;;10.87;6.40;;;-0.60;99.90;-0.90;101860.00;;;;4904402;28;120638;-64
2024/01/12 03:27:39;;;;;;;10.50;6.60;;;-0.50;99.90;-0.90;101850.00;;;;4917987;28;110542;-64
2024/01/12 03:30:06;;;;;;;19.30;9.17;;;0.10;99.90;-0.90;101853.00;;;;4906926;28;110025;-64
2024/01/12 03:32:33;;;;;;;13.83;7.97;;;-0.50;99.90;-0.90;101848.00;;;;4904190;28;110624;-64
2024/01/12 03:34:59;;;;;;;11.50;7.87;;;-0.20;99.90;-0.90;101854.00;;;;4907825;28;94244;-64
2024/01/12 03:37:25;;;;;;;15.03;8.03;;;-0.50;99.90;-0.90;101849.00;;;;4907295;28;102904;-64
2024/01/12 03:39:51;;;;;;;10.93;6.83;;;-0.50;99.90;-0.90;101858.00;;;;4908436;28;93047;-64
2024/01/12 03:42:17;;;;;;;13.17;7.30;;;-0.50;99.90;-0.90;101870.00;;;;4906100;28;122957;-65
2024/01/12 03:44:42;;;;;;;11.27;7.20;;;-0.50;99.90;-0.90;101861.00;;;;4906086;28;92640;-65
2024/01/12 03:47:08;;;;;;;13.73;8.33;;;-0.50;99.90;-0.90;101860.00;;;;4899224;28;92156;-64
2024/01/12 03:49:34;;;;;;;15.00;7.87;;;0.40;99.90;-0.90;101857.00;;;;4908971;28;99241;-64
2024/01/12 03:52:00;;;;;;;12.40;7.40;;;-0.50;99.90;-0.90;101856.00;;;;4914777;28;106315;-63
2024/01/12 03:54:25;;;;;;;14.10;7.03;;;-0.50;99.90;-0.90;101860.00;;;;4907149;28;95703;-63
2024/01/12 03:56:52;;;;;;;11.83;7.53;;;-0.50;99.90;-0.80;101857.00;;;;4910066;28;92686;-64
2024/01/12 03:59:18;;;;;;;11.90;7.63;;;-0.50;99.90;-0.80;101858.00;;;;4909964;28;93314;-63
2024/01/12 04:01:45;;;;;;;12.37;7.40;;;-0.40;99.90;-0.80;101861.00;;;;4911748;28;100693;-65
2024/01/12 04:04:12;;;;;;;12.07;8.50;;;-0.50;99.90;-0.80;101870.00;;;;4912980;28;92801;-63
2024/01/12 04:06:39;;;;;;;15.30;8.57;;;-0.50;99.90;-0.80;101861.00;;;;4909791;28;92635;-65
2024/01/12 04:09:05;;;;;;;21.60;7.73;;;-0.40;99.90;-0.80;101856.00;;;;4911404;28;92776;-62
2024/01/12 04:11:31;;;;;;;14.17;7.23;;;-0.40;99.90;-0.80;101857.00;;;;4909096;28;120160;-62
2024/01/12 04:13:56;;;;;;;10.10;7.17;;;-0.40;99.90;-0.80;101869.00;;;;4913052;28;93202;-63
2024/01/12 04:16:22;;;;;;;14.57;7.83;;;-0.40;99.90;-0.80;101855.00;;;;4909430;28;92849;-64
2024/01/12 04:18:48;;;;;;;16.77;8.13;;;-0.30;99.90;-0.70;101857.00;;;;4907229;28;107946;-63
2024/01/12 04:21:14;;;;;;;17.47;8.43;;;-0.30;99.90;-0.70;101863.00;;;;4906342;28;122518;-63
2024/01/12 04:23:40;;;;;;;13.43;8.47;;;-0.20;99.90;-0.70;101848.00;;;;4907649;28;123227;-63
2024/01/12 04:26:06;;;;;;;15.33;8.40;;;-0.40;99.90;-0.80;101848.00;;;;4910237;28;99734;-63
2024/01/12 04:28:32;;;;;;;15.73;9.17;;;0.70;99.90;-0.80;101847.00;;;;4909153;28;92533;-63
2024/01/12 04:31:01;;;;;;;15.43;9.60;;;-0.30;99.90;-0.80;101833.00;;;;4903530;28;99481;-64
2024/01/12 04:33:26;;;;;;;19.47;9.17;;;-0.30;99.90;-0.70;101833.00;;;;4909084;28;93995;-63
2024/01/12 04:35:52;;;;;;;15.30;10.50;;;-0.40;99.90;-0.80;101839.00;;;;4910172;28;109924;-64
2024/01/12 04:38:19;;;;;;;13.83;8.00;;;-0.40;99.90;-0.80;101817.00;;;;4911159;28;107253;-64
2024/01/12 04:40:45;;;;;;;13.50;8.80;;;-1.90;99.90;-0.80;101829.00;;;;4905768;28;93680;-63
2024/01/12 04:43:10;;;;;;;16.63;8.47;;;-0.30;99.90;-0.80;101834.00;;;;4907015;28;106405;-65
2024/01/12 04:45:36;;;;;;;11.43;7.03;;;-0.30;99.90;-0.80;101838.00;;;;4910612;28;94219;-64
2024/01/12 04:48:02;;;;;;;12.80;8.30;;;-0.30;99.90;-0.80;101845.00;;;;4907033;28;108281;-63
2024/01/12 04:50:28;;;;;;;11.60;8.30;;;-0.30;99.90;-0.70;101850.00;;;;4904100;28;117760;-64
2024/01/12 04:52:54;;;;;;;19.33;8.03;;;-0.40;99.90;-0.70;101837.00;;;;4893693;28;121957;-64
2024/01/12 04:55:20;;;;;;;10.13;7.57;;;-0.30;99.90;-0.80;101823.00;;;;4907988;28;95031;-63
2024/01/12 04:57:49;;;;;;;13.93;8.57;;;-0.50;99.90;-0.70;101829.00;;;;4909053;28;94982;-64
2024/01/12 05:00:16;;;;;;;16.97;9.03;;;-0.30;99.90;-0.70;101828.00;;;;4907369;28;93022;-64
2024/01/12 05:02:41;;;;;;;14.67;7.47;;;-0.30;99.90;-0.70;101832.00;;;;4911069;28;92631;-64
2024/01/12 05:05:10;;;;;;;17.50;9.83;;;-0.30;99.90;-0.70;101841.00;;;;4910823;28;111714;-65
2024/01/12 05:07:36;;;;;;;13.00;7.17;;;-0.30;99.90;-0.70;101836.00;;;;4909501;28;93470;-64
2024/01/12 05:10:03;;;;;;;16.30;8.53;;;-0.40;99.90;-0.70;101838.00;;;;4906771;28;121366;-63
2024/01/12 05:12:29;;;;;;;17.77;10.07;;;-0.20;99.90;-0.70;101841.00;;;;4908989;28;93878;-63
2024/01/12 05:14:55;;;;;;;14.87;8.40;;;-0.30;99.90;-0.70;101846.00;;;;4906264;28;109083;-62
2024/01/12 05:17:21;;;;;;;15.90;9.27;;;-0.30;99.90;-0.70;101854.00;;;;4909024;28;108342;-63
2024/01/12 05:19:47;;;;;;;16.20;9.50;;;-0.30;99.90;-0.70;101841.00;;;;4908642;28;93638;-63
2024/01/12 05:22:13;;;;;;;12.83;8.17;;;-0.30;99.90;-0.70;101849.00;;;;4910778;28;111685;-64
2024/01/12 05:24:39;;;;;;;11.93;8.47;;;-0.30;99.90;-0.70;101857.00;;;;4907392;28;92088;-63
2024/01/12 05:27:04;;;;;;;13.40;8.57;;;0.80;99.90;-0.70;101825.00;;;;4907073;28;108868;-64
2024/01/12 05:29:30;;;;;;;19.87;13.53;;;-0.30;99.90;-0.70;101832.00;;;;4911437;28;122753;-63
2024/01/12 05:31:56;;;;;;;19.60;9.07;;;-0.30;99.90;-0.70;101826.00;;;;4903519;28;123542;-64
2024/01/12 05:34:21;;;;;;;17.37;9.97;;;-0.30;99.90;-0.70;101837.00;;;;4911871;28;113389;-64
2024/01/12 05:36:47;;;;;;;15.03;9.43;;;-0.30;99.90;-0.70;101825.00;;;;4903784;28;107405;-64
2024/01/12 05:39:15;;;;;;;18.07;9.40;;;-0.20;99.90;-0.70;101841.00;;;;4901882;28;123591;-64
2024/01/12 05:41:40;;;;;;;15.33;8.57;;;-0.30;99.90;-0.70;101832.00;;;;4910663;28;92695;-64
2024/01/12 05:44:06;;;;;;;12.40;8.50;;;-0.30;99.90;-0.70;101829.00;;;;4912305;28;110758;-64
2024/01/12 05:46:32;;;;;;;13.30;7.80;;;-0.20;99.90;-0.70;101825.00;;;;4906751;28;106564;-64
2024/01/12 05:49:00;;;;;;;12.13;7.57;;;-0.30;99.90;-0.70;101835.00;;;;4908095;28;116937;-64
2024/01/12 05:51:26;;;;;;;8.93;6.47;;;-0.30;99.90;-0.70;101840.00;;;;4904605;28;93027;-64
2024/01/12 05:53:51;;;;;;;16.47;8.07;;;-0.30;99.90;-0.70;101853.00;;;;4906990;28;110530;-64
2024/01/12 05:56:17;;;;;;;21.50;13.57;;;-0.20;99.90;-0.70;101842.00;;;;4905881;28;107036;-65
2024/01/12 05:58:43;;;;;;;17.30;8.13;;;-0.20;99.90;-0.60;101850.00;;;;4904272;28;116980;-63
2024/01/12 06:01:09;;;;;;;14.97;8.60;;;-0.30;99.90;-0.60;101859.00;;;;4904678;28;123022;-64
2024/01/12 06:03:35;;;;;;;12.17;7.40;;;-0.20;99.90;-0.60;101857.00;;;;4900243;28;109173;-64
2024/01/12 06:06:01;;;;;;;16.53;9.10;;;-0.20;99.90;-0.60;101864.00;;;;4907804;28;93250;-64
2024/01/12 06:08:26;;;;;;;15.80;8.67;;;-0.40;99.90;-0.60;101869.00;;;;4899617;28;123812;-65
2024/01/12 06:10:52;;;;;;;16.93;8.77;;;-0.30;99.90;-0.60;101851.00;;;;4904547;28;106302;-65
2024/01/12 06:13:18;;;;;;;23.70;14.33;;;-0.10;99.90;-0.50;101860.00;;;;4902644;28;109783;-63
2024/01/12 06:15:43;;;;;;;14.87;10.00;;;-0.30;99.90;-0.50;101854.00;;;;4897856;28;106310;-63
2024/01/12 06:18:09;;;;;;;18.90;8.13;;;-0.20;99.90;-0.50;101854.00;;;;4900059;28;112731;-64
2024/01/12 06:20:35;;;;;;;16.80;7.43;;;-0.10;99.90;-0.50;101857.00;;;;4903422;28;93901;-64
2024/01/12 06:23:01;;;;;;;13.97;8.37;;;-0.20;99.90;-0.50;101864.00;;;;4903384;28;94209;-64
2024/01/12 06:25:29;;;;;;;12.13;7.80;;;-0.10;99.90;-0.50;101869.00;;;;4898788;28;107713;-64
2024/01/12 06:27:54;;;;;;;19.53;8.93;;;-0.10;99.90;-0.50;101876.00;;;;4905397;28;93201;-64
2024/01/12 06:30:20;;;;;;;11.73;7.50;;;-0.10;99.90;-0.50;101865.00;;;;4900435;28;122904;-64
2024/01/12 06:32:46;;;;;;;11.87;7.40;;;0.40;99.90;-0.50;101869.00;;;;4902038;28;108973;-65
2024/01/12 06:35:13;;;;;;;16.03;8.53;;;1.10;99.90;-0.50;101861.00;;;;4901154;28;109245;-65
2024/01/12 06:37:38;;;;;;;18.03;9.03;;;-0.20;99.90;-0.50;101880.00;;;;4902468;28;92106;-65
2024/01/12 06:40:05;;;;;;;20.33;8.57;;;0.00;99.90;-0.50;101883.00;;;;4907581;28;92591;-64
2024/01/12 06:42:31;;;;;;;14.53;7.03;;;-0.10;99.90;-0.50;101878.00;;;;4903479;28;99530;-64
2024/01/12 06:44:57;;;;;;;16.97;9.33;;;-0.10;99.90;-0.50;101863.00;;;;4919195;28;93877;-64
2024/01/12 06:47:23;;;;;;;13.37;9.23;;;-0.20;99.90;-0.50;101869.00;;;;4900939;28;123048;-64
2024/01/12 06:49:49;;;;;;;14.43;8.63;;;-0.30;99.90;-0.50;101858.00;;;;4904391;28;120873;-64
2024/01/12 06:52:15;;;;;;;12.67;8.13;;;-0.10;99.90;-0.50;101861.00;;;;4899323;28;109617;-64
2024/01/12 06:54:44;;;;;;;10.13;7.23;;;-0.10;99.90;-0.50;101859.00;;;;4902588;28;108948;-65
2024/01/12 06:57:10;;;;;;;14.33;8.07;;;-0.10;99.90;-0.50;101854.00;;;;4903831;28;92683;-65
2024/01/12 06:59:36;;;;;;;15.20;8.27;;;-0.10;99.90;-0.50;101845.00;;;;4903664;28;92946;-65
2024/01/12 07:02:02;;;;;;;12.00;7.33;;;0.10;99.90;-0.50;101846.00;;;;4904137;28;98549;-65
2024/01/12 07:04:28;;;;;;;18.40;9.67;;;-0.10;99.90;-0.50;101848.00;;;;4902499;28;108594;-64
2024/01/12 07:06:54;;;;;;;9.23;7.23;;;-0.10;99.90;-0.50;101842.00;;;;4905040;28;122868;-64
2024/01/12 07:09:20;;;;;;;12.87;7.40;;;-0.10;99.90;-0.50;101853.00;;;;4903791;28;106776;-64
2024/01/12 07:11:45;;;;;;;15.47;8.83;;;-0.50;99.90;-0.50;101848.00;;;;4905743;28;111003;-64
2024/01/12 07:14:14;;;;;;;17.47;8.43;;;0.10;99.90;-0.50;101841.00;;;;4905522;28;92804;-64
2024/01/12 07:16:40;;;;;;;15.77;8.60;;;0.10;99.90;-0.50;101860.00;;;;4904640;28;93882;-64
2024/01/12 07:19:06;;;;;;;15.37;9.00;;;1.30;99.90;-0.50;101858.00;;;;4920653;28;93601;-65
2024/01/12 07:21:33;;;;;;;16.70;8.83;;;-0.10;99.90;-0.50;101865.00;;;;4906549;28;92658;-64
2024/01/12 07:23:59;;;;;;;15.37;8.77;;;-0.10;99.90;-0.50;101862.00;;;;4905316;28;92624;-64
2024/01/12 07:26:25;;;;;;;15.23;8.93;;;0.90;99.90;-0.50;101861.00;;;;4906963;28;92398;-66
2024/01/12 07:28:51;;;;;;;12.97;8.83;;;0.00;99.90;-0.50;101873.00;;;;4910121;28;92995;-64
2024/01/12 07:31:17;;;;;;;21.73;8.47;;;-0.10;99.90;-0.50;101870.00;;;;4911147;28;92485;-64
2024/01/12 07:33:43;;;;;;;16.07;9.50;;;0.00;99.90;-0.50;101870.00;;;;4908987;28;93927;-65
2024/01/12 07:36:09;;;;;;;27.03;11.07;;;-0.10;99.90;-0.50;101863.00;;;;4902362;28;112184;-64
2024/01/12 07:38:34;;;;;;;17.70;10.17;;;0.80;99.90;-0.50;101859.00;;;;4903974;28;92716;-65
2024/01/12 07:41:00;;;;;;;14.70;9.03;;;0.00;99.90;-0.50;101862.00;;;;4904099;28;103305;-65
2024/01/12 07:43:30;;;;;;;14.37;9.43;;;1.50;99.90;-0.50;101850.00;;;;4906697;28;92944;-64
2024/01/12 07:45:57;;;;;;;13.43;9.43;;;0.20;99.90;-0.50;101857.00;;;;4904508;28;93846;-65
2024/01/12 07:48:22;;;;;;;18.50;10.00;;;-0.20;99.90;-0.50;101865.00;;;;4905498;28;93790;-65
2024/01/12 07:50:49;;;;;;;15.93;9.40;;;0.00;99.90;-0.50;101870.00;;;;4903828;28;108725;-65
2024/01/12 07:53:14;;;;;;;19.47;9.03;;;-0.10;99.90;-0.50;101855.00;;;;4903327;28;92969;-63
2024/01/12 07:55:40;;;;;;;18.67;10.47;;;-0.10;99.90;-0.50;101857.00;;;;4906869;28;93003;-64
2024/01/12 07:58:09;;;;;;;19.33;9.37;;;-0.10;99.90;-0.50;101857.00;;;;4903288;28;93801;-66
2024/01/12 08:00:35;;;;;;;21.57;11.60;;;-0.10;99.90;-0.40;101858.00;;;;4905464;28;93083;-65
2024/01/12 08:03:02;;;;;;;12.93;9.80;;;0.00;99.90;-0.50;101861.00;;;;4904687;28;107155;-64
2024/01/12 08:05:28;;;;;;;17.40;10.67;;;1.00;99.90;-0.40;101856.00;;;;4903109;28;93989;-65
2024/01/12 08:07:54;;;;;;;19.17;9.07;;;0.00;99.90;-0.40;101870.00;;;;4906884;28;93096;-64
2024/01/12 08:10:20;;;;;;;23.47;11.93;;;0.00;99.90;-0.40;101869.00;;;;4903414;28;111564;-65
2024/01/12 08:12:47;;;;;;;17.53;9.27;;;0.50;99.90;-0.40;101853.00;;;;4903593;28;92601;-64
2024/01/12 08:15:13;;;;;;;15.97;9.87;;;0.00;99.90;-0.40;101855.00;;;;4904264;28;93733;-63
2024/01/12 08:17:41;;;;;;;16.90;8.90;;;0.00;99.90;-0.40;101857.00;;;;4904027;28;92635;-64
2024/01/12 08:20:07;;;;;;;21.73;9.87;;;0.10;99.90;-0.30;101852.00;;;;4905063;28;110192;-65
2024/01/12 08:22:33;;;;;;;23.07;9.67;;;0.10;99.90;-0.30;101845.00;;;;4909943;28;93925;-65
2024/01/12 08:25:00;;;;;;;14.00;7.87;;;0.10;99.90;-0.30;101844.00;;;;4900090;28;111031;-64
2024/01/12 08:27:26;;;;;;;17.20;8.97;;;0.10;99.90;-0.30;101858.00;;;;4904306;28;92922;-65
2024/01/12 08:29:52;;;;;;;10.83;6.97;;;0.10;99.90;-0.30;101855.00;;;;4906493;28;92556;-64
2024/01/12 08:32:17;;;;;;;9.17;7.03;;;0.90;99.90;-0.30;101857.00;;;;4904361;28;92899;-65
2024/01/12 08:34:43;;;;;;;13.53;8.00;;;0.20;99.90;-0.30;101862.00;;;;4902905;28;93677;-63
2024/01/12 08:37:09;;;;;;;10.97;6.83;;;0.10;99.90;-0.30;101856.00;;;;4902032;28;123269;-64
2024/01/12 08:39:35;;;;;;;14.40;6.97;;;0.00;99.90;-0.20;101857.00;;;;4904216;28;108864;-65
2024/01/12 08:42:00;;;;;;;10.80;6.23;;;0.10;99.90;-0.20;101855.00;;;;4906678;28;93284;-66
2024/01/12 08:44:26;;;;;;;9.43;6.60;;;0.20;99.90;-0.20;101861.00;;;;4903061;28;121737;-64
2024/01/12 08:46:54;;;;;;;8.83;5.63;;;0.20;99.90;-0.20;101870.00;;;;4905150;28;99271;-65
2024/01/12 08:49:20;;;;;;;9.17;5.73;;;0.20;99.90;-0.10;101855.00;;;;4902680;28;92961;-66
2024/01/12 08:51:49;;;;;;;8.83;5.63;;;1.20;99.90;-0.10;101854.00;;;;4903827;28;93140;-66
2024/01/12 08:54:15;;;;;;;10.73;5.50;;;0.30;99.90;-0.10;101860.00;;;;4901547;28;121698;-65
2024/01/12 08:56:41;;;;;;;9.53;5.70;;;0.20;99.90;-0.10;101848.00;;;;4917638;28;109352;-65
2024/01/12 08:59:08;;;;;;;9.30;6.40;;;0.40;99.90;-0.10;101855.00;;;;4902091;28;110092;-66
2024/01/12 09:01:34;;;;;;;7.97;4.67;;;0.30;99.90;0.00;101855.00;;;;4902272;28;92498;-65
2024/01/12 09:04:01;;;;;;;14.73;5.90;;;0.20;99.90;0.00;101853.00;;;;4900280;28;91788;-64
2024/01/12 09:06:28;;;;;;;8.67;6.63;;;0.40;99.90;0.00;101842.00;;;;4902053;28;93319;-66
2024/01/12 09:08:57;;;;;;;8.60;5.40;;;0.40;99.90;0.00;101843.00;;;;4902665;28;92906;-64
2024/01/12 09:11:23;;;;;;;6.90;4.60;;;0.30;99.90;0.00;101847.00;;;;4901479;28;94516;-65
2024/01/12 09:13:49;;;;;;;7.00;3.93;;;0.40;99.90;0.00;101836.00;;;;4906452;28;95150;-65
2024/01/12 09:16:15;;;;;;;8.30;5.13;;;0.40;99.90;0.00;101854.00;;;;4907657;28;92794;-65
2024/01/12 09:18:43;;;;;;;5.67;4.80;;;0.40;99.90;0.00;101843.00;;;;4907994;28;93243;-66
2024/01/12 09:21:14;;;;;;;8.70;4.93;;;0.50;99.90;0.10;101840.00;;;;4904894;28;92851;-66
2024/01/12 09:23:42;;;;;;;7.93;4.53;;;0.50;99.90;0.10;101865.00;;;;4905256;28;95186;-65
2024/01/12 09:26:09;;;;;;;7.50;5.50;;;2.30;99.90;0.10;101854.00;;;;4905486;28;93963;-66
2024/01/12 09:28:36;;;;;;;6.47;4.00;;;0.40;99.90;0.10;101852.00;;;;4905758;28;91937;-66
2024/01/12 09:31:03;;;;;;;9.83;4.60;;;0.50;99.90;0.20;101845.00;;;;4901302;28;93298;-67
2024/01/12 09:33:30;;;;;;;6.07;3.70;;;0.50;99.90;0.10;101850.00;;;;4898571;28;93059;-66
2024/01/12 09:35:56;;;;;;;6.37;3.67;;;0.60;99.90;0.10;101849.00;;;;4901851;28;94017;-65
2024/01/12 09:38:21;;;;;;;4.33;3.83;;;0.70;99.90;0.10;101862.00;;;;4908085;28;92999;-65
2024/01/12 09:40:48;;;;;;;7.67;4.43;;;0.50;99.90;0.10;101860.00;;;;4901818;28;108218;-67
2024/01/12 09:43:15;;;;;;;6.27;3.77;;;0.40;99.90;0.10;101839.00;;;;4897796;28;93686;-66
2024/01/12 09:45:45;;;;;;;6.00;3.93;;;0.20;99.90;0.10;101847.00;;;;4903278;28;102380;-66
2024/01/12 09:48:12;;;;;;;9.93;4.67;;;0.50;99.90;0.10;101846.00;;;;4902621;28;92399;-66
2024/01/12 09:50:39;;;;;;;11.30;4.43;;;0.40;99.90;0.10;101852.00;;;;4902179;28;93230;-68
2024/01/12 09:53:06;;;;;;;6.63;3.53;;;0.50;99.90;0.10;101860.00;;;;4901599;28;92463;-66
2024/01/12 09:55:32;;;;;;;11.57;4.77;;;0.40;99.90;0.10;101849.00;;;;4902971;28;94488;-66
2024/01/12 09:57:58;;;;;;;4.50;3.50;;;0.40;99.90;0.10;101850.00;;;;4906382;28;110304;-66
2024/01/12 10:00:26;;;;;;;4.47;4.07;;;0.40;99.90;0.20;101844.00;;;;4905742;28;94061;-67
2024/01/12 10:02:52;;;;;;;5.63;3.77;;;0.40;99.90;0.20;101833.00;;;;4905002;28;94009;-66
2024/01/12 10:05:18;;;;;;;8.63;4.93;;;0.50;99.90;0.20;101825.00;;;;4902957;28;94254;-66
2024/01/12 10:07:44;;;;;;;6.03;4.43;;;0.60;99.90;0.20;101830.00;;;;4902021;28;110326;-66
2024/01/12 10:10:10;;;;;;;6.57;3.37;;;0.50;99.90;0.20;101819.00;;;;4902485;28;92577;-67
2024/01/12 10:12:36;;;;;;;5.00;4.00;;;1.90;99.90;0.20;101834.00;;;;4890104;28;120874;-68
2024/01/12 10:15:04;;;;;;;5.93;3.40;;;0.60;99.90;0.20;101822.00;;;;4905759;28;122979;-68
2024/01/12 10:17:34;;;;;;;5.50;3.37;;;0.50;99.90;0.20;101845.00;;;;4901659;28;95882;-67
2024/01/12 10:20:00;;;;;;;5.50;4.33;;;1.10;99.90;0.20;101839.00;;;;4901918;28;92903;-67
2024/01/12 10:22:26;;;;;;;5.20;3.60;;;0.60;99.90;0.20;101833.00;;;;4903769;28;105639;-68
2024/01/12 10:25:00;;;;;;;6.53;3.50;;;1.30;99.90;0.20;101821.00;;;;4905773;28;93826;-67
2024/01/12 10:27:27;;;;;;;3.67;3.10;;;0.60;99.90;0.30;101815.00;;;;4908215;28;92873;-67
2024/01/12 10:29:54;;;;;;;3.17;2.20;;;0.60;99.90;0.30;101829.00;;;;4900499;28;92843;-68
2024/01/12 10:32:20;;;;;;;6.00;2.87;;;1.30;99.90;0.30;101819.00;;;;4900209;28;93823;-67
2024/01/12 10:34:52;;;;;;;4.67;3.30;;;0.70;99.90;0.30;101808.00;;;;4903048;28;93111;-67